Time;durP1;ratioP1;P1;durP2;ratioP2;P2;SDS_P1;SDS_P2;PMS_P1;PMS_P2;Temp;Humidity;BMP_temperature;BMP_pressure;BME280_temperature;BME280_humidity;BME280_pressure;Samples;Min_cycle;Max_cycle;Signal;HPM_P1;HPM_P2
2024/02/03 00:00:16;;;;;;;6.97;5.03;;;;;;;3.11;45.31;94628.78;5036260;28;20025;-73
2024/02/03 00:02:41;;;;;;;7.75;5.32;;;;;;;3.21;45.37;94637.56;5032516;28;20222;-73
2024/02/03 00:05:07;;;;;;;10.57;5.35;;;;;;;3.16;45.31;94644.59;5036166;28;20040;-73
2024/02/03 00:07:32;;;;;;;8.63;4.97;;;;;;;3.29;45.29;94633.69;5035174;28;20051;-73
2024/02/03 00:09:58;;;;;;;10.45;6.15;;;;;;;3.27;45.08;94630.53;5033639;28;20997;-73
2024/02/03 00:12:28;;;;;;;7.35;4.80;;;;;;;3.09;45.54;94626.38;5036145;28;20029;-73
2024/02/03 00:14:56;;;;;;;6.78;5.03;;;;;;;3.15;45.45;94630.66;5031856;28;20055;-73
2024/02/03 00:17:22;;;;;;;8.82;5.05;;;;;;;3.09;45.52;94630.84;5035578;28;20719;-73
2024/02/03 00:19:48;;;;;;;6.65;4.78;;;;;;;2.92;45.35;94609.91;5035966;28;20033;-74
2024/02/03 00:22:14;;;;;;;7.30;4.28;;;;;;;2.90;45.89;94638.25;5034403;28;20371;-73
2024/02/03 00:24:40;;;;;;;9.02;5.32;;;;;;;2.57;46.27;94617.34;5034793;28;20033;-73
2024/02/03 00:27:06;;;;;;;8.45;4.60;;;;;;;2.73;46.23;94632.28;5029510;28;20024;-73
2024/02/03 00:29:31;;;;;;;9.30;4.97;;;;;;;2.83;45.72;94632.41;5035545;28;20564;-73
2024/02/03 00:31:57;;;;;;;8.25;4.47;;;;;;;2.75;46.19;94630.19;5023082;28;20122;-73
2024/02/03 00:34:23;;;;;;;12.18;4.57;;;;;;;2.96;45.97;94637.28;5020417;28;20040;-73
2024/02/03 00:36:48;;;;;;;9.40;4.15;;;;;;;3.00;45.88;94629.69;5034002;28;20037;-73
2024/02/03 00:39:13;;;;;;;8.35;4.95;;;;;;;3.11;45.71;94624.31;5037247;28;20520;-73
2024/02/03 00:41:40;;;;;;;5.20;4.13;;;;;;;2.98;45.74;94624.72;5010418;28;20065;-73
2024/02/03 00:44:05;;;;;;;7.43;4.25;;;;;;;2.73;45.75;94601.56;5012412;28;20066;-73
2024/02/03 00:46:31;;;;;;;8.60;4.38;;;;;;;2.51;46.34;94612.03;5013732;28;20041;-73
2024/02/03 00:48:56;;;;;;;6.75;3.63;;;;;;;2.51;46.38;94604.16;5012490;28;20043;-74
2024/02/03 00:51:22;;;;;;;7.00;3.50;;;;;;;2.61;46.32;94615.84;5033207;28;20123;-73
2024/02/03 00:53:47;;;;;;;4.78;3.47;;;;;;;2.60;46.19;94609.00;5033764;28;20098;-73
2024/02/03 00:56:12;;;;;;;8.38;3.35;;;;;;;2.43;46.26;94591.47;5030075;28;20036;-73
2024/02/03 00:58:38;;;;;;;8.90;3.10;;;;;;;2.52;45.55;94600.50;5033486;28;20048;-74
2024/02/03 01:01:04;;;;;;;3.85;2.70;;;;;;;2.39;45.60;94605.31;5025900;28;20041;-71
2024/02/03 01:03:30;;;;;;;4.85;2.90;;;;;;;1.87;46.43;94589.09;5009146;28;20044;-73
2024/02/03 01:05:55;;;;;;;3.25;2.70;;;;;;;1.75;47.09;94610.13;5032377;28;20090;-73
2024/02/03 01:08:21;;;;;;;4.32;3.03;;;;;;;1.84;47.23;94611.31;5032097;28;20033;-71
2024/02/03 01:10:47;;;;;;;4.93;3.45;;;;;;;1.72;47.48;94584.38;5034777;28;20168;-73
2024/02/03 01:13:12;;;;;;;5.60;3.47;;;;;;;2.05;47.09;94599.34;5031090;28;20075;-74
2024/02/03 01:15:38;;;;;;;3.78;3.00;;;;;;;2.00;46.79;94586.94;5033757;28;20581;-72
2024/02/03 01:18:04;;;;;;;4.68;3.38;;;;;;;2.29;46.47;94600.72;5034205;28;20117;-73
2024/02/03 01:20:31;;;;;;;8.27;3.70;;;;;;;2.35;45.71;94599.75;5032521;28;20041;-73
2024/02/03 01:22:56;;;;;;;5.88;3.92;;;;;;;2.06;46.21;94572.84;5032292;28;20048;-73
2024/02/03 01:25:22;;;;;;;5.03;3.50;;;;;;;2.16;46.07;94595.03;5026758;28;20038;-73
2024/02/03 01:27:47;;;;;;;7.50;3.78;;;;;;;2.20;46.39;94589.06;5008253;28;20052;-73
2024/02/03 01:30:12;;;;;;;9.05;4.45;;;;;;;2.26;46.66;94590.69;5032893;28;20780;-73
2024/02/03 01:32:38;;;;;;;6.10;3.78;;;;;;;2.20;46.21;94565.44;5015196;28;20034;-73
2024/02/03 01:35:04;;;;;;;10.63;4.78;;;;;;;2.10;46.64;94575.78;5011381;28;20180;-73
2024/02/03 01:37:30;;;;;;;5.53;3.42;;;;;;;2.17;46.73;94589.53;5020475;28;20052;-73
2024/02/03 01:39:55;;;;;;;6.47;4.25;;;;;;;2.03;46.95;94567.28;5034630;28;20032;-73
2024/02/03 01:42:21;;;;;;;4.85;3.67;;;;;;;2.13;46.80;94593.66;5034273;28;20399;-73
2024/02/03 01:44:47;;;;;;;6.63;4.43;;;;;;;1.97;46.77;94578.75;5029609;28;20122;-73
2024/02/03 01:47:12;;;;;;;5.38;4.40;;;;;;;1.84;47.08;94577.22;5031965;28;20041;-73
2024/02/03 01:49:38;;;;;;;10.35;4.72;;;;;;;1.87;47.56;94586.47;5035380;28;20029;-73
2024/02/03 01:52:04;;;;;;;10.65;4.45;;;;;;;2.01;47.01;94569.38;5035122;28;20069;-73
2024/02/03 01:54:29;;;;;;;8.95;5.70;;;;;;;1.93;46.80;94561.91;5026940;28;20029;-73
2024/02/03 01:56:58;;;;;;;8.98;5.18;;;;;;;1.72;47.04;94529.28;5036267;28;20067;-73
2024/02/03 01:59:27;;;;;;;10.65;4.93;;;;;;;1.57;46.95;94542.22;5016820;28;20053;-73
2024/02/03 02:01:55;;;;;;;7.15;4.15;;;;;;;1.73;46.75;94553.69;5020311;28;20490;-73
2024/02/03 02:04:21;;;;;;;5.50;4.30;;;;;;;1.64;46.96;94550.69;5035639;28;20049;-73
2024/02/03 02:06:47;;;;;;;6.68;4.50;;;;;;;1.62;46.78;94524.69;5033813;28;25101;-74
2024/02/03 02:09:22;;;;;;;9.10;4.43;;;;;;;1.73;46.83;94548.44;5015765;28;20036;-73
2024/02/03 02:11:48;;;;;;;11.68;5.00;;;;;;;1.88;46.58;94552.13;5033978;28;20544;-73
2024/02/03 02:14:14;;;;;;;7.07;4.88;;;;;;;1.83;46.42;94543.34;5036133;28;20041;-73
2024/02/03 02:16:39;;;;;;;7.03;4.82;;;;;;;1.97;46.12;94545.44;5037956;28;20044;-73
2024/02/03 02:19:05;;;;;;;6.95;4.75;;;;;;;1.95;45.88;94549.34;5032413;28;20033;-73
2024/02/03 02:21:31;;;;;;;8.63;4.75;;;;;;;1.39;46.80;94519.63;5033698;28;20067;-73
2024/02/03 02:23:57;;;;;;;10.77;5.80;;;;;;;1.27;47.77;94539.88;5035724;28;20037;-73
2024/02/03 02:26:23;;;;;;;6.95;5.00;;;;;;;0.98;48.10;94504.28;5036471;28;20079;-72
2024/02/03 02:28:49;;;;;;;8.23;5.28;;;;;;;0.90;48.60;94515.13;5035511;28;20524;-73
2024/02/03 02:31:14;;;;;;;8.07;5.28;;;;;;;1.00;49.10;94557.22;5036002;28;20123;-72
2024/02/03 02:33:40;;;;;;;8.52;4.88;;;;;;;1.26;48.62;94559.25;5037095;28;20512;-72
2024/02/03 02:36:06;;;;;;;7.32;5.07;;;;;;;1.35;48.25;94549.19;5030928;28;20044;-73
2024/02/03 02:38:31;;;;;;;10.80;5.18;;;;;;;1.05;49.08;94541.59;5036889;28;20131;-73
2024/02/03 02:40:57;;;;;;;12.13;5.85;;;;;;;1.10;48.76;94549.53;5035422;28;20033;-73
2024/02/03 02:43:22;;;;;;;7.05;5.00;;;;;;;1.23;48.18;94552.66;5038486;28;20624;-73
2024/02/03 02:45:48;;;;;;;9.15;4.70;;;;;;;1.39;47.92;94545.03;5039002;28;20519;-72
2024/02/03 02:48:13;;;;;;;5.28;4.50;;;;;;;1.31;47.50;94540.22;5037282;28;20036;-73
2024/02/03 02:50:38;;;;;;;6.07;4.93;;;;;;;1.37;47.41;94539.25;5035935;28;20041;-73
2024/02/03 02:53:04;;;;;;;6.43;4.07;;;;;;;1.33;47.31;94544.16;5037694;28;20052;-73
2024/02/03 02:55:30;;;;;;;7.35;4.82;;;;;;;1.27;47.50;94532.03;5037493;28;20485;-73
2024/02/03 02:57:55;;;;;;;9.48;5.38;;;;;;;1.18;47.64;94520.34;5033955;28;20496;-73
2024/02/03 03:00:20;;;;;;;5.18;4.68;;;;;;;1.26;47.51;94506.84;5018332;28;20041;-73
2024/02/03 03:02:46;;;;;;;7.00;4.72;;;;;;;1.24;47.35;94520.19;5021604;28;20047;-73
2024/02/03 03:05:11;;;;;;;5.55;4.10;;;;;;;1.38;47.16;94512.78;5036232;28;20382;-73
2024/02/03 03:07:39;;;;;;;6.90;4.82;;;;;;;1.41;47.09;94504.47;5036533;28;20078;-73
2024/02/03 03:10:05;;;;;;;9.25;4.72;;;;;;;1.14;46.97;94448.47;5037239;28;20543;-73
2024/02/03 03:12:31;;;;;;;10.32;4.78;;;;;;;1.49;47.15;94511.13;5035415;28;20139;-73
2024/02/03 03:14:57;;;;;;;6.10;5.07;;;;;;;1.72;46.58;94510.16;5034597;28;20127;-73
2024/02/03 03:17:22;;;;;;;9.38;4.90;;;;;;;1.75;46.82;94504.44;5035752;28;20043;-73
2024/02/03 03:19:48;;;;;;;10.18;6.80;;;;;;;1.73;47.20;94512.53;5034910;28;20037;-73
2024/02/03 03:22:15;;;;;;;13.63;8.50;;;;;;;1.82;46.61;94503.22;5033367;28;20029;-73
2024/02/03 03:24:42;;;;;;;9.75;7.07;;;;;;;1.77;46.58;94507.59;5036290;28;20045;-73
2024/02/03 03:27:07;;;;;;;17.73;11.55;;;;;;;1.54;47.03;94498.91;5035558;28;20045;-73
2024/02/03 03:29:33;;;;;;;15.77;10.32;;;;;;;1.73;46.84;94503.88;5027812;28;20041;-73
2024/02/03 03:31:58;;;;;;;21.67;11.63;;;;;;;1.64;47.11;94500.88;5008684;28;20026;-73
2024/02/03 03:34:24;;;;;;;13.10;8.65;;;;;;;1.72;46.82;94499.69;5011365;28;20022;-74
2024/02/03 03:36:49;;;;;;;14.23;8.77;;;;;;;1.45;47.37;94505.56;5013110;28;20037;-72
2024/02/03 03:39:15;;;;;;;13.05;9.23;;;;;;;1.52;46.94;94503.56;5012898;28;20508;-73
2024/02/03 03:41:41;;;;;;;13.13;7.97;;;;;;;1.51;46.93;94486.28;5010233;28;20033;-73
2024/02/03 03:44:06;;;;;;;8.65;5.32;;;;;;;1.35;47.31;94515.09;5010114;28;20092;-73
2024/02/03 03:46:32;;;;;;;11.85;5.40;;;;;;;1.31;47.41;94500.91;5008848;28;20558;-73
2024/02/03 03:48:57;;;;;;;9.73;6.35;;;;;;;1.29;47.60;94503.75;5009875;28;27477;-73
2024/02/03 03:51:23;;;;;;;10.93;5.53;;;;;;;1.41;47.20;94509.72;5009721;28;20097;-73
2024/02/03 03:53:48;;;;;;;11.75;6.15;;;;;;;1.20;47.91;94499.94;5011192;28;20041;-73
2024/02/03 03:56:14;;;;;;;10.43;5.13;;;;;;;1.21;48.03;94496.28;5010824;28;20108;-73
2024/02/03 03:58:39;;;;;;;7.35;5.45;;;;;;;1.43;47.48;94481.41;5007747;28;20021;-73
2024/02/03 04:01:08;;;;;;;7.88;5.03;;;;;;;1.19;47.91;94490.47;5009451;28;20546;-73
2024/02/03 04:03:33;;;;;;;10.48;4.97;;;;;;;1.07;48.21;94467.00;5030666;28;20029;-73
2024/02/03 04:05:58;;;;;;;11.40;6.28;;;;;;;1.11;48.19;94486.44;5034379;28;20043;-73
2024/02/03 04:08:24;;;;;;;6.70;5.40;;;;;;;1.06;48.59;94496.03;5034162;28;20505;-73
2024/02/03 04:10:49;;;;;;;7.15;5.70;;;;;;;1.10;48.62;94489.28;5031719;28;20480;-73
2024/02/03 04:13:15;;;;;;;10.40;6.60;;;;;;;1.21;48.17;94483.19;5035952;28;20025;-73
2024/02/03 04:15:40;;;;;;;8.48;5.25;;;;;;;1.17;48.16;94482.06;5035849;28;20079;-73
2024/02/03 04:18:06;;;;;;;8.98;6.25;;;;;;;1.08;48.40;94488.75;5034741;28;20429;-73
2024/02/03 04:20:31;;;;;;;9.50;6.18;;;;;;;1.03;48.55;94480.81;5034986;28;20064;-73
2024/02/03 04:22:57;;;;;;;14.00;6.53;;;;;;;0.96;48.68;94480.16;5031562;28;20059;-73
2024/02/03 04:25:23;;;;;;;7.35;5.28;;;;;;;0.74;49.34;94464.34;5036766;28;20071;-73
2024/02/03 04:27:48;;;;;;;11.73;6.05;;;;;;;0.96;49.01;94485.38;5034184;28;20037;-73
2024/02/03 04:30:16;;;;;;;12.45;5.85;;;;;;;0.80;49.15;94473.84;5035001;28;20040;-73
2024/02/03 04:32:42;;;;;;;6.47;5.38;;;;;;;0.78;49.42;94470.69;5034676;28;20629;-73
2024/02/03 04:35:08;;;;;;;6.97;4.82;;;;;;;0.59;50.09;94480.59;5032873;28;20041;-73
2024/02/03 04:37:33;;;;;;;7.40;5.28;;;;;;;0.92;49.59;94476.41;5032935;28;20060;-73
2024/02/03 04:39:59;;;;;;;11.73;5.53;;;;;;;0.85;49.67;94478.38;5036179;28;20043;-73
2024/02/03 04:42:26;;;;;;;8.38;5.03;;;;;;;0.89;49.56;94487.38;5036145;28;20037;-73
2024/02/03 04:44:52;;;;;;;8.38;5.68;;;;;;;0.78;49.93;94468.88;5035116;28;20037;-73
2024/02/03 04:47:17;;;;;;;8.05;6.13;;;;;;;0.86;49.82;94486.00;5029563;28;20048;-73
2024/02/03 04:49:43;;;;;;;8.90;5.55;;;;;;;0.90;49.81;94489.75;5006345;28;20458;-73
2024/02/03 04:52:08;;;;;;;10.80;5.15;;;;;;;0.85;49.70;94488.84;5010137;28;20118;-73
2024/02/03 04:54:34;;;;;;;7.72;5.68;;;;;;;1.01;49.33;94488.88;5007338;28;20046;-73
2024/02/03 04:57:00;;;;;;;9.07;5.45;;;;;;;0.95;49.31;94483.78;5024013;28;20045;-73
2024/02/03 04:59:26;;;;;;;11.50;5.35;;;;;;;0.94;49.71;94487.44;5034256;28;20076;-73
2024/02/03 05:01:51;;;;;;;8.27;5.70;;;;;;;0.99;49.18;94495.38;5029030;28;20058;-72
2024/02/03 05:04:17;;;;;;;8.13;6.10;;;;;;;0.76;49.61;94498.94;5033411;28;20037;-73
2024/02/03 05:06:43;;;;;;;9.25;5.65;;;;;;;0.76;49.84;94510.19;5037404;28;20041;-73
2024/02/03 05:09:08;;;;;;;7.90;5.30;;;;;;;0.66;49.65;94499.53;5033146;28;20041;-73
2024/02/03 05:11:34;;;;;;;9.68;5.53;;;;;;;0.52;50.40;94516.56;5034549;28;20128;-73
2024/02/03 05:14:00;;;;;;;6.60;5.00;;;;;;;0.79;49.69;94517.56;5029944;28;20111;-73
2024/02/03 05:16:26;;;;;;;8.70;5.00;;;;;;;0.68;49.95;94518.44;5034918;28;20035;-73
2024/02/03 05:18:52;;;;;;;9.20;5.68;;;;;;;0.68;50.07;94530.72;5034342;28;20124;-73
2024/02/03 05:21:17;;;;;;;5.75;4.40;;;;;;;0.68;49.87;94505.34;5027517;28;20095;-73
2024/02/03 05:23:43;;;;;;;7.97;4.55;;;;;;;0.84;49.73;94523.94;5039703;28;20534;-73
2024/02/03 05:26:08;;;;;;;7.55;4.90;;;;;;;0.77;49.69;94524.09;5038142;28;20041;-73
2024/02/03 05:28:34;;;;;;;7.13;5.50;;;;;;;0.84;49.54;94523.94;5037418;28;20033;-73
2024/02/03 05:30:59;;;;;;;9.38;4.60;;;;;;;0.95;49.47;94516.03;5039158;28;20049;-73
2024/02/03 05:33:25;;;;;;;9.65;4.80;;;;;;;1.05;48.91;94518.03;5018068;28;20072;-73
2024/02/03 05:35:50;;;;;;;8.27;4.72;;;;;;;0.99;48.97;94508.47;5023669;28;20064;-73
2024/02/03 05:38:16;;;;;;;7.22;5.75;;;;;;;0.87;49.55;94497.28;5034056;28;20656;-73
2024/02/03 05:40:41;;;;;;;7.57;5.32;;;;;;;0.88;49.20;94504.91;5029628;28;20335;-73
2024/02/03 05:43:08;;;;;;;8.13;4.68;;;;;;;0.76;49.62;94491.06;5037436;28;20558;-73
2024/02/03 05:45:33;;;;;;;7.97;4.32;;;;;;;0.70;49.43;94498.03;5035657;28;20044;-73
2024/02/03 05:47:59;;;;;;;6.03;4.65;;;;;;;0.45;50.32;94491.56;5038642;28;20045;-73
2024/02/03 05:50:24;;;;;;;4.57;4.07;;;;;;;0.35;50.34;94468.59;5037539;28;20075;-73
2024/02/03 05:52:50;;;;;;;8.52;4.18;;;;;;;0.43;50.41;94481.31;5037483;28;20071;-73
2024/02/03 05:55:15;;;;;;;6.43;4.80;;;;;;;0.38;50.48;94478.59;5033923;28;20537;-72
2024/02/03 05:57:51;;;;;;;7.63;4.55;;;;;;;0.50;49.98;94463.63;5038295;28;21301;-73
2024/02/03 06:00:18;;;;;;;9.05;4.47;;;;;;;0.64;49.54;94453.69;5038582;28;20037;-73
2024/02/03 06:02:44;;;;;;;10.23;4.10;;;;;;;0.52;49.64;94445.88;5038319;28;20106;-73
2024/02/03 06:05:09;;;;;;;7.65;4.60;;;;;;;0.56;49.96;94473.19;5027470;28;20045;-73
2024/02/03 06:07:35;;;;;;;7.55;5.60;;;;;;;0.53;50.27;94472.84;5034576;28;20028;-73
2024/02/03 06:10:00;;;;;;;7.97;5.10;;;;;;;0.85;49.28;94468.69;5039440;28;20497;-73
2024/02/03 06:12:26;;;;;;;7.68;5.30;;;;;;;0.69;49.59;94462.41;5037707;28;20186;-73
2024/02/03 06:14:51;;;;;;;8.30;5.25;;;;;;;0.66;49.84;94454.25;5037378;28;20033;-73
2024/02/03 06:17:17;;;;;;;11.77;5.30;;;;;;;0.76;49.67;94470.91;5030154;28;20088;-73
2024/02/03 06:19:43;;;;;;;8.55;5.43;;;;;;;0.85;49.48;94473.16;5009750;28;20334;-73
2024/02/03 06:22:08;;;;;;;6.07;4.63;;;;;;;0.93;49.37;94476.19;5036973;28;20029;-73
2024/02/03 06:24:33;;;;;;;14.00;5.22;;;;;;;1.00;49.17;94476.03;5037947;28;20029;-73
2024/02/03 06:26:59;;;;;;;11.63;5.57;;;;;;;1.02;49.02;94471.34;5037089;28;20033;-73
2024/02/03 06:29:24;;;;;;;11.95;5.88;;;;;;;1.13;48.72;94486.22;5038274;28;20056;-72
2024/02/03 06:31:50;;;;;;;11.02;5.28;;;;;;;1.11;48.30;94477.78;5037063;28;20170;-73
2024/02/03 06:34:15;;;;;;;12.15;5.57;;;;;;;1.20;48.06;94486.84;5032028;28;20032;-73
2024/02/03 06:36:41;;;;;;;12.40;7.13;;;;;;;1.15;48.32;94469.22;5035824;28;20064;-73
2024/02/03 06:39:08;;;;;;;9.52;5.05;;;;;;;1.38;48.15;94491.03;5036438;28;20721;-73
2024/02/03 06:41:33;;;;;;;11.30;7.40;;;;;;;1.34;48.47;94498.59;5038022;28;20529;-73
2024/02/03 06:43:59;;;;;;;8.30;5.28;;;;;;;1.50;48.20;94497.78;5039197;28;20044;-73
2024/02/03 06:46:24;;;;;;;8.68;4.97;;;;;;;1.63;47.48;94492.19;5035701;28;20028;-73
2024/02/03 06:48:51;;;;;;;7.57;5.43;;;;;;;1.64;47.77;94493.00;5037118;28;20028;-73
2024/02/03 06:51:16;;;;;;;6.72;4.65;;;;;;;1.87;47.02;94489.41;5037065;28;20164;-73
2024/02/03 06:53:41;;;;;;;27.42;14.60;;;;;;;2.11;46.07;94501.25;5023243;28;20431;-73
2024/02/03 06:56:08;;;;;;;10.88;6.03;;;;;;;2.09;46.20;94495.47;5012205;28;20052;-73
2024/02/03 06:58:33;;;;;;;14.02;5.60;;;;;;;2.31;45.71;94501.50;5037864;28;20114;-73
2024/02/03 07:00:59;;;;;;;11.90;5.85;;;;;;;2.04;46.33;94498.03;5031980;28;20469;-73
2024/02/03 07:03:24;;;;;;;10.77;6.95;;;;;;;2.30;46.33;94512.28;5036030;28;20525;-73
2024/02/03 07:05:49;;;;;;;7.85;4.80;;;;;;;2.44;45.25;94489.88;5034353;28;20074;-73
2024/02/03 07:08:15;;;;;;;10.23;5.45;;;;;;;2.38;45.36;94504.75;5036224;28;20048;-73
2024/02/03 07:10:40;;;;;;;8.80;4.25;;;;;;;2.31;45.98;94504.13;5037576;28;20025;-73
2024/02/03 07:13:06;;;;;;;12.82;4.78;;;;;;;2.29;45.70;94489.69;5036732;28;20048;-73
2024/02/03 07:15:31;;;;;;;10.27;5.10;;;;;;;2.14;45.69;94471.94;5031895;28;20086;-73
2024/02/03 07:17:56;;;;;;;6.70;4.30;;;;;;;2.37;45.65;94503.16;5036346;28;20041;-73
2024/02/03 07:20:22;;;;;;;6.15;3.90;;;;;;;2.29;45.21;94474.72;5036042;28;20037;-73
2024/02/03 07:22:48;;;;;;;8.38;4.03;;;;;;;2.29;45.85;94489.69;5036711;28;20663;-73
2024/02/03 07:25:19;;;;;;;11.10;4.75;;;;;;;2.48;45.53;94502.25;5037485;28;20435;-73
2024/02/03 07:27:45;;;;;;;13.93;5.03;;;;;;;2.49;45.47;94510.94;5030978;28;20486;-72
2024/02/03 07:30:10;;;;;;;3.78;2.30;;;;;;;2.64;43.58;94516.34;5036708;28;20118;-73
2024/02/03 07:32:36;;;;;;;4.43;2.33;;;;;;;2.48;42.84;94483.88;5036687;28;20378;-73
2024/02/03 07:35:02;;;;;;;6.03;4.13;;;;;;;2.58;44.47;94498.94;5035261;28;20087;-73
2024/02/03 07:37:27;;;;;;;1.95;1.67;;;;;;;2.88;42.03;94483.50;5037197;28;20049;-71
2024/02/03 07:39:53;;;;;;;7.72;3.40;;;;;;;2.73;43.41;94487.81;5031853;28;20122;-71
2024/02/03 07:42:19;;;;;;;8.10;3.30;;;;;;;2.72;43.21;94484.38;5020692;28;20481;-71
2024/02/03 07:44:45;;;;;;;5.25;2.78;;;;;;;2.80;43.40;94488.38;5020277;28;20041;-73
2024/02/03 07:47:12;;;;;;;2.95;2.05;;;;;;;2.90;42.79;94480.59;5028441;28;20048;-73
2024/02/03 07:49:37;;;;;;;4.97;2.65;;;;;;;2.98;42.85;94498.56;5027022;28;20116;-73
2024/02/03 07:52:03;;;;;;;4.40;1.77;;;;;;;3.12;43.19;94483.97;5028310;28;20040;-73
2024/02/03 07:54:28;;;;;;;3.15;2.10;;;;;;;3.23;43.06;94504.03;5027110;28;20120;-73
2024/02/03 07:56:54;;;;;;;2.90;2.55;;;;;;;3.14;43.71;94510.00;5033039;28;20160;-73
2024/02/03 07:59:19;;;;;;;3.05;1.98;;;;;;;3.22;44.04;94489.31;5032070;28;20029;-73
2024/02/03 08:01:45;;;;;;;9.48;2.50;;;;;;;2.99;44.28;94481.75;5032321;28;20116;-71
2024/02/03 08:04:11;;;;;;;4.68;1.83;;;;;;;2.99;43.73;94489.63;5026171;28;20033;-73
2024/02/03 08:06:36;;;;;;;5.47;2.28;;;;;;;2.91;43.60;94466.44;5029874;28;20521;-73
2024/02/03 08:09:02;;;;;;;3.60;3.00;;;;;;;3.05;43.87;94493.88;5022129;28;20044;-73
2024/02/03 08:11:27;;;;;;;8.50;3.95;;;;;;;3.17;43.67;94507.69;5025555;28;20094;-73
2024/02/03 08:13:52;;;;;;;7.43;3.17;;;;;;;2.84;43.82;94511.28;5024726;28;20051;-73
2024/02/03 08:16:18;;;;;;;7.40;3.17;;;;;;;2.83;43.66;94511.56;5025938;28;20057;-73
2024/02/03 08:18:43;;;;;;;5.55;3.65;;;;;;;2.67;43.80;94491.41;5026724;28;20124;-73
2024/02/03 08:21:09;;;;;;;7.65;4.22;;;;;;;2.71;44.23;94505.63;5028898;28;20033;-73
2024/02/03 08:23:34;;;;;;;8.82;6.35;;;;;;;2.53;45.02;94502.31;5026826;28;20041;-72
2024/02/03 08:26:00;;;;;;;4.93;3.53;;;;;;;2.49;44.62;94484.66;5033737;28;20679;-72
2024/02/03 08:28:25;;;;;;;7.75;3.42;;;;;;;2.56;44.66;94494.97;5029803;28;20039;-72
2024/02/03 08:30:51;;;;;;;5.50;2.75;;;;;;;2.53;44.86;94499.69;5031800;28;20365;-73
2024/02/03 08:33:16;;;;;;;3.35;2.45;;;;;;;2.63;44.72;94485.06;5030265;28;20049;-72
2024/02/03 08:35:41;;;;;;;4.18;2.88;;;;;;;2.87;44.46;94491.63;5025018;28;20665;-72
2024/02/03 08:38:07;;;;;;;5.88;3.85;;;;;;;2.83;44.69;94491.34;5025204;28;20057;-72
2024/02/03 08:40:33;;;;;;;4.97;2.38;;;;;;;2.79;44.76;94479.72;5023808;28;20140;-73
2024/02/03 08:43:00;;;;;;;3.03;2.50;;;;;;;2.80;44.70;94481.31;5029616;28;20060;-72
2024/02/03 08:45:25;;;;;;;4.72;2.70;;;;;;;2.79;44.94;94478.94;5030165;28;20041;-72
2024/02/03 08:47:51;;;;;;;5.68;3.75;;;;;;;3.01;44.77;94487.56;5031019;28;20033;-72
2024/02/03 08:50:16;;;;;;;6.57;3.58;;;;;;;3.06;45.02;94474.47;5024547;28;20110;-72
2024/02/03 08:52:42;;;;;;;9.55;4.32;;;;;;;3.18;44.47;94463.78;5029452;28;20024;-72
2024/02/03 08:55:07;;;;;;;5.72;2.88;;;;;;;3.06;44.58;94468.41;5026143;28;20033;-73
2024/02/03 08:57:33;;;;;;;5.43;3.38;;;;;;;3.16;45.15;94473.75;5022688;28;20510;-73
2024/02/03 08:59:58;;;;;;;5.32;3.05;;;;;;;3.38;45.09;94472.59;5013893;28;20044;-72
2024/02/03 09:02:24;;;;;;;9.30;4.30;;;;;;;3.59;44.78;94478.81;5014748;28;20502;-73
2024/02/03 09:04:50;;;;;;;5.90;3.92;;;;;;;3.54;44.52;94476.13;5029605;28;20033;-73
2024/02/03 09:07:15;;;;;;;5.63;3.92;;;;;;;3.68;44.56;94487.81;5027424;28;20079;-72
2024/02/03 09:09:42;;;;;;;7.47;3.13;;;;;;;3.37;44.75;94450.00;5027938;28;20045;-72
2024/02/03 09:12:08;;;;;;;6.40;2.42;;;;;;;3.48;45.46;94497.41;5022944;28;20409;-72
2024/02/03 09:14:33;;;;;;;3.50;2.33;;;;;;;3.53;45.22;94487.69;5028367;28;20037;-72
2024/02/03 09:16:59;;;;;;;6.55;3.05;;;;;;;3.45;45.49;94492.63;5026522;28;20498;-72
2024/02/03 09:19:26;;;;;;;10.93;4.03;;;;;;;3.29;45.76;94476.75;5030936;28;20041;-73
2024/02/03 09:21:51;;;;;;;5.30;3.65;;;;;;;3.34;45.78;94500.44;5031008;28;20099;-72
2024/02/03 09:24:17;;;;;;;6.05;2.72;;;;;;;3.27;45.68;94478.84;5028027;28;20037;-73
2024/02/03 09:26:44;;;;;;;8.70;2.25;;;;;;;3.28;45.72;94498.81;5029746;28;20041;-73
2024/02/03 09:29:12;;;;;;;5.45;3.75;;;;;;;2.88;45.97;94440.66;5027510;28;20048;-72
2024/02/03 09:31:38;;;;;;;4.47;3.05;;;;;;;3.19;45.80;94460.09;5030121;28;20048;-72
2024/02/03 09:34:05;;;;;;;4.95;2.40;;;;;;;3.30;46.24;94473.06;5030139;28;20040;-72
2024/02/03 09:36:33;;;;;;;7.07;2.88;;;;;;;3.54;45.54;94476.13;5029918;28;20037;-72
2024/02/03 09:38:59;;;;;;;6.97;3.40;;;;;;;3.70;45.31;94471.78;5013051;28;20041;-72
2024/02/03 09:41:25;;;;;;;6.30;2.70;;;;;;;3.80;44.87;94459.47;5027665;28;20118;-73
2024/02/03 09:43:53;;;;;;;7.55;4.72;;;;;;;3.88;44.73;94463.47;5029987;28;20033;-72
2024/02/03 09:46:18;;;;;;;5.60;3.40;;;;;;;3.91;45.48;94455.06;5028762;28;20497;-73
2024/02/03 09:48:43;;;;;;;6.32;3.70;;;;;;;4.11;45.17;94465.66;5027899;28;20141;-73
2024/02/03 09:51:11;;;;;;;4.25;2.35;;;;;;;4.11;44.92;94441.22;5033157;28;20521;-72
2024/02/03 09:53:37;;;;;;;4.65;2.10;;;;;;;4.06;45.07;94444.59;5029824;28;20041;-72
2024/02/03 09:56:03;;;;;;;7.53;3.15;;;;;;;4.12;44.90;94435.66;5028610;28;20029;-72
2024/02/03 09:58:29;;;;;;;5.30;2.30;;;;;;;4.17;44.98;94433.06;5029294;28;20090;-72
2024/02/03 10:00:54;;;;;;;5.78;2.60;;;;;;;4.32;44.95;94436.81;5032241;28;20049;-69
2024/02/03 10:03:20;;;;;;;4.28;2.72;;;;;;;4.37;44.67;94427.09;5017809;28;20037;-69
2024/02/03 10:05:48;;;;;;;5.70;3.95;;;;;;;4.45;44.21;94428.47;5001553;28;20055;-70
2024/02/03 10:08:13;;;;;;;4.55;2.42;;;;;;;4.50;43.90;94415.31;5008699;28;20128;-70
2024/02/03 10:10:42;;;;;;;6.38;3.13;;;;;;;4.54;44.90;94414.53;5007115;28;20107;-70
2024/02/03 10:13:09;;;;;;;3.92;2.83;;;;;;;4.60;45.01;94425.88;5028390;28;20037;-69
2024/02/03 10:15:36;;;;;;;2.47;1.83;;;;;;;4.77;45.23;94431.69;5028470;28;20075;-69
2024/02/03 10:18:02;;;;;;;7.20;2.88;;;;;;;4.76;44.85;94424.81;5028575;28;20064;-70
2024/02/03 10:20:28;;;;;;;5.28;3.15;;;;;;;4.78;44.91;94428.00;5030738;28;20117;-69
2024/02/03 10:22:53;;;;;;;4.20;2.50;;;;;;;4.63;44.97;94394.50;5025116;28;20033;-69
2024/02/03 10:25:27;;;;;;;5.35;3.13;;;;;;;4.62;45.42;94402.66;5004647;28;20129;-70
2024/02/03 10:28:03;;;;;;;4.07;2.15;;;;;;;4.90;44.45;94414.53;5005294;28;20608;-69
2024/02/03 10:30:34;;;;;;;6.65;2.40;;;;;;;4.92;44.26;94407.97;5023071;28;20233;-69
2024/02/03 10:33:01;;;;;;;3.30;2.25;;;;;;;4.78;44.70;94406.91;5026212;28;20526;-69
2024/02/03 10:35:28;;;;;;;6.15;3.33;;;;;;;4.84;44.69;94405.88;5027494;28;20037;-69
2024/02/03 10:37:53;;;;;;;7.43;2.55;;;;;;;4.68;44.52;94383.97;5029540;28;20059;-69
2024/02/03 10:40:19;;;;;;;7.40;2.30;;;;;;;4.69;44.75;94403.22;5030709;28;20931;-69
2024/02/03 10:42:49;;;;;;;4.93;2.15;;;;;;;4.85;44.52;94396.88;5029803;28;20506;-70
2024/02/03 10:45:17;;;;;;;4.90;2.15;;;;;;;4.76;45.05;94397.66;5027432;28;20092;-70
2024/02/03 10:47:45;;;;;;;6.88;4.03;;;;;;;4.66;45.13;94388.69;5025221;28;20044;-70
2024/02/03 10:50:13;;;;;;;4.13;2.10;;;;;;;4.79;45.13;94392.69;5027318;28;20050;-70
2024/02/03 10:52:43;;;;;;;6.63;2.95;;;;;;;4.67;45.22;94371.06;5025603;28;20052;-70
2024/02/03 10:55:12;;;;;;;4.93;2.00;;;;;;;5.04;45.06;94378.72;5026413;28;20037;-70
2024/02/03 10:57:39;;;;;;;5.93;3.45;;;;;;;4.94;44.94;94368.94;5030810;28;20131;-70
2024/02/03 11:00:10;;;;;;;6.93;4.00;;;;;;;4.96;44.92;94363.41;5019665;28;20041;-70
2024/02/03 11:02:36;;;;;;;4.38;2.55;;;;;;;4.93;45.41;94351.56;5024988;28;20037;-70
2024/02/03 11:05:08;;;;;;;6.40;3.20;;;;;;;4.90;45.10;94331.00;5025103;28;20715;-70
2024/02/03 11:07:36;;;;;;;8.48;4.25;;;;;;;5.16;44.92;94349.44;5026841;28;20029;-70
2024/02/03 11:10:03;;;;;;;6.82;2.17;;;;;;;5.21;44.95;94350.22;5005066;28;20037;-70
2024/02/03 11:12:35;;;;;;;3.38;2.40;;;;;;;5.25;44.70;94353.09;5021502;28;20106;-70
2024/02/03 11:15:01;;;;;;;9.75;5.40;;;;;;;5.29;44.66;94349.66;5025822;28;20052;-70
2024/02/03 11:17:32;;;;;;;12.40;6.07;;;;;;;5.07;45.60;94346.53;5024785;28;20045;-70
2024/02/03 11:19:57;;;;;;;4.72;2.80;;;;;;;5.16;45.19;94357.34;5025497;28;20521;-70
2024/02/03 11:22:26;;;;;;;4.95;2.80;;;;;;;5.44;44.83;94354.13;5028658;28;20029;-70
2024/02/03 11:24:51;;;;;;;6.68;3.83;;;;;;;5.57;44.63;94348.31;5028293;28;20037;-70
2024/02/03 11:27:17;;;;;;;5.70;2.45;;;;;;;5.59;45.13;94332.97;5029572;28;20425;-70
2024/02/03 11:29:42;;;;;;;4.25;1.45;;;;;;;5.42;46.21;94327.25;5015740;28;20061;-75
2024/02/03 11:32:08;;;;;;;4.85;1.90;;;;;;;5.76;46.62;94333.47;5002731;28;20076;-71